createdAt,value
2023-04-15T00:00:37.660Z,1.50
2023-04-15T00:03:55.026Z,1.20
2023-04-15T00:06:57.941Z,1.40
2023-04-15T00:10:00.880Z,2.00
2023-04-15T00:13:04.607Z,1.10
2023-04-15T00:16:08.639Z,1.30
2023-04-15T00:19:12.097Z,1.50
2023-04-15T00:22:14.982Z,1.30
2023-04-15T00:25:18.127Z,1.20
2023-04-15T00:28:21.213Z,1.20
2023-04-15T00:31:24.286Z,0.90
2023-04-15T00:34:28.067Z,1.30
2023-04-15T00:37:31.188Z,1.20
2023-04-15T00:40:34.502Z,1.20
2023-04-15T00:43:37.576Z,1.00
2023-04-15T00:46:41.632Z,1.00
2023-04-15T00:49:44.479Z,2.10
2023-04-15T00:52:47.448Z,1.20
2023-04-15T00:55:51.472Z,1.10
2023-04-15T00:58:54.496Z,1.70
2023-04-15T01:01:57.483Z,1.30
2023-04-15T01:05:00.658Z,1.70
2023-04-15T01:08:03.950Z,1.90
2023-04-15T01:11:07.941Z,2.10
2023-04-15T01:14:11.356Z,1.30
2023-04-15T01:17:14.586Z,1.30
2023-04-15T01:20:17.690Z,1.30
2023-04-15T01:23:23.152Z,0.90
2023-04-15T01:26:26.255Z,1.00
2023-04-15T01:29:29.561Z,1.50
2023-04-15T01:32:32.646Z,2.30
2023-04-15T01:35:35.656Z,1.90
2023-04-15T01:38:39.170Z,1.50
2023-04-15T01:41:42.585Z,1.40
2023-04-15T01:44:45.443Z,1.80
2023-04-15T01:47:48.318Z,2.00
2023-04-15T01:50:52.002Z,1.70
2023-04-15T01:53:57.071Z,0.80
2023-04-15T01:56:59.919Z,1.00
2023-04-15T02:00:04.610Z,1.10
2023-04-15T02:03:07.731Z,1.50
2023-04-15T02:06:10.650Z,3.60
2023-04-15T02:09:13.587Z,5.70
2023-04-15T02:12:16.594Z,5.80
2023-04-15T02:15:19.455Z,3.30
2023-04-15T02:18:22.300Z,1.40
2023-04-15T02:21:27.098Z,1.80
2023-04-15T02:24:31.300Z,2.30
2023-04-15T02:27:34.307Z,1.50
2023-04-15T02:30:37.182Z,1.50
2023-04-15T02:33:40.286Z,1.70
2023-04-15T02:36:43.070Z,1.80
2023-04-15T02:39:46.103Z,2.10
2023-04-15T02:42:49.239Z,2.00
2023-04-15T02:45:52.481Z,1.70
2023-04-15T02:48:55.620Z,2.00
2023-04-15T02:52:00.083Z,1.90
2023-04-15T02:55:04.583Z,1.90
2023-04-15T02:58:07.695Z,1.70
2023-04-15T03:01:10.797Z,2.00
2023-04-15T03:04:14.498Z,2.50
2023-04-15T03:07:18.793Z,1.90
2023-04-15T03:10:22.284Z,2.60
2023-04-15T03:13:25.425Z,2.40
2023-04-15T03:16:28.280Z,2.90
2023-04-15T03:19:31.997Z,2.20
2023-04-15T03:22:34.786Z,2.40
2023-04-15T03:25:37.777Z,1.70
2023-04-15T03:28:40.776Z,2.00
2023-04-15T03:31:43.683Z,1.80
2023-04-15T03:34:46.590Z,1.90
2023-04-15T03:37:49.616Z,2.30
2023-04-15T03:40:52.430Z,2.30
2023-04-15T03:43:55.283Z,1.80
2023-04-15T03:46:58.127Z,1.60
2023-04-15T03:50:01.309Z,2.40
2023-04-15T03:53:04.242Z,1.70
2023-04-15T03:56:07.445Z,2.20
2023-04-15T03:59:10.719Z,2.90
2023-04-15T04:02:13.715Z,2.50
2023-04-15T04:05:16.895Z,2.70
2023-04-15T04:08:22.415Z,2.20
2023-04-15T04:11:25.391Z,2.50
2023-04-15T04:14:29.872Z,1.60
2023-04-15T04:17:33.010Z,2.10
2023-04-15T04:20:36.012Z,2.00
2023-04-15T04:23:38.923Z,2.40
2023-04-15T04:26:41.796Z,3.30
2023-04-15T04:29:44.690Z,2.90
2023-04-15T04:32:47.765Z,2.80
2023-04-15T04:35:50.622Z,2.90
2023-04-15T04:38:53.446Z,2.70
2023-04-15T04:41:56.328Z,2.00
2023-04-15T04:44:59.204Z,2.40
2023-04-15T04:48:02.108Z,2.50
2023-04-15T04:51:05.276Z,3.30
2023-04-15T04:54:08.220Z,2.60
2023-04-15T04:57:13.646Z,2.70
2023-04-15T05:00:17.217Z,2.80
2023-04-15T05:03:20.433Z,2.20
2023-04-15T05:06:23.647Z,2.70
2023-04-15T05:09:26.710Z,2.80
2023-04-15T05:12:29.617Z,3.20
2023-04-15T05:15:33.200Z,2.50
2023-04-15T05:18:36.841Z,2.80
2023-04-15T05:21:39.777Z,2.70
2023-04-15T05:24:42.660Z,2.30
2023-04-15T05:27:45.662Z,2.40
2023-04-15T05:30:48.632Z,2.30
2023-04-15T05:33:51.602Z,2.70
2023-04-15T05:36:54.497Z,1.80
2023-04-15T05:39:57.413Z,2.20
2023-04-15T05:43:00.248Z,2.10
2023-04-15T05:46:03.146Z,2.80
2023-04-15T05:49:06.325Z,3.00
2023-04-15T05:52:09.255Z,2.10
2023-04-15T05:55:12.574Z,9.80
2023-04-15T05:58:15.601Z,2.20
2023-04-15T06:01:18.430Z,1.20
2023-04-15T06:04:22.031Z,1.40
2023-04-15T06:07:25.236Z,0.80
2023-04-15T06:10:28.283Z,1.40
2023-04-15T06:13:31.275Z,1.10
2023-04-15T06:16:35.044Z,1.10
2023-04-15T06:19:37.918Z,1.90
2023-04-15T06:22:40.961Z,1.30
2023-04-15T06:25:43.886Z,0.90
2023-04-15T06:28:46.892Z,0.80
2023-04-15T06:31:49.906Z,1.40
2023-04-15T06:34:52.784Z,1.60
2023-04-15T06:37:55.856Z,2.00
2023-04-15T06:40:58.750Z,1.10
2023-04-15T06:44:01.585Z,1.00
2023-04-15T06:47:04.586Z,0.80
2023-04-15T06:50:09.432Z,0.70
2023-04-15T06:53:12.476Z,0.90
2023-04-15T06:56:15.959Z,0.90
2023-04-15T06:59:19.157Z,0.90
2023-04-15T07:02:22.324Z,0.90
2023-04-15T07:05:25.533Z,0.80
2023-04-15T07:08:28.452Z,1.10
2023-04-15T07:11:31.408Z,1.10
2023-04-15T07:14:34.296Z,1.50
2023-04-15T07:17:37.383Z,0.90
2023-04-15T07:20:40.352Z,0.70
2023-04-15T07:23:43.220Z,1.20
2023-04-15T07:26:46.709Z,0.80
2023-04-15T07:29:51.666Z,0.70
2023-04-15T07:32:54.661Z,0.50
2023-04-15T07:35:57.580Z,0.40
2023-04-15T07:39:02.464Z,0.50
2023-04-15T07:42:05.728Z,0.60
2023-04-15T07:45:09.547Z,0.70
2023-04-15T07:48:12.529Z,0.50
2023-04-15T07:51:15.450Z,0.40
2023-04-15T07:54:18.298Z,0.50
2023-04-15T07:57:21.161Z,0.60
2023-04-15T08:00:24.197Z,0.50
2023-04-15T08:03:27.879Z,0.90
2023-04-15T08:06:31.040Z,0.70
2023-04-15T08:09:34.156Z,0.60
2023-04-15T08:12:37.336Z,0.50
2023-04-15T08:15:40.376Z,0.70
2023-04-15T08:18:43.288Z,0.50
2023-04-15T08:21:46.929Z,2.50
2023-04-15T08:24:49.958Z,0.70
2023-04-15T08:27:55.550Z,0.60
2023-04-15T08:30:58.508Z,1.90
2023-04-15T08:34:01.446Z,0.50
2023-04-15T08:37:04.366Z,0.90
2023-04-15T08:40:08.686Z,0.70
2023-04-15T08:43:15.914Z,0.60
2023-04-15T08:46:19.734Z,0.60
2023-04-15T08:49:26.713Z,0.80
2023-04-15T08:52:31.680Z,1.00
2023-04-15T08:55:36.972Z,2.70
2023-04-15T08:58:40.003Z,0.90
2023-04-15T09:01:43.741Z,0.90
2023-04-15T09:04:46.663Z,0.70
2023-04-15T09:07:51.559Z,0.90
2023-04-15T09:10:55.301Z,0.90
2023-04-15T09:13:58.195Z,0.80
2023-04-15T09:17:03.594Z,0.90
2023-04-15T09:20:11.704Z,1.00
2023-04-15T09:23:15.748Z,0.80
2023-04-15T09:26:18.894Z,0.80
2023-04-15T09:29:27.107Z,1.20
2023-04-15T09:32:30.904Z,1.00
2023-04-15T09:35:36.422Z,1.00
2023-04-15T09:38:55.390Z,1.00
2023-04-15T09:42:07.034Z,1.30
2023-04-15T09:45:12.310Z,1.10
2023-04-15T09:48:18.400Z,1.30
2023-04-15T09:51:35.281Z,1.80
2023-04-15T09:54:38.944Z,1.40
2023-04-15T09:57:42.511Z,1.00
2023-04-15T10:00:48.350Z,1.30
2023-04-15T10:03:52.697Z,1.70
2023-04-15T10:06:57.146Z,1.80
2023-04-15T10:10:03.218Z,2.10
2023-04-15T10:13:07.280Z,1.70
2023-04-15T10:16:19.969Z,2.20
2023-04-15T10:19:27.279Z,1.40
2023-04-15T10:22:30.814Z,1.60
2023-04-15T10:25:33.838Z,2.00
2023-04-15T10:28:36.776Z,1.80
2023-04-15T10:31:41.624Z,1.40
2023-04-15T10:34:46.530Z,1.40
2023-04-15T10:37:49.482Z,1.50
2023-04-15T10:40:54.407Z,1.50
2023-04-15T10:44:04.995Z,1.60
2023-04-15T10:47:19.114Z,1.60
2023-04-15T10:50:22.483Z,1.60
2023-04-15T10:53:30.221Z,1.40
2023-04-15T10:56:33.113Z,1.20
2023-04-15T10:59:58.992Z,1.80
2023-04-15T11:03:11.034Z,1.70
2023-04-15T11:06:14.116Z,1.90
2023-04-15T11:09:42.528Z,1.60
2023-04-15T11:12:46.167Z,1.50
2023-04-15T11:15:49.872Z,1.60
2023-04-15T11:18:56.266Z,1.80
2023-04-15T11:22:12.746Z,1.60
2023-04-15T11:25:34.419Z,1.40
2023-04-15T11:28:39.050Z,1.20
2023-04-15T11:31:42.392Z,1.80
2023-04-15T11:34:47.117Z,1.60
2023-04-15T11:37:51.193Z,1.20
2023-04-15T11:40:54.192Z,1.70
2023-04-15T11:43:57.199Z,1.40
2023-04-15T11:47:00.153Z,1.20
2023-04-15T11:50:20.552Z,1.40
2023-04-15T11:53:26.082Z,1.60
2023-04-15T11:56:29.101Z,1.30
2023-04-15T11:59:46.207Z,1.30
2023-04-15T12:02:51.312Z,1.40
2023-04-15T12:06:10.517Z,1.30
2023-04-15T12:09:15.140Z,1.50
2023-04-15T12:12:19.607Z,1.20
2023-04-15T12:15:24.232Z,1.60
2023-04-15T12:18:27.991Z,1.30
2023-04-15T12:21:35.335Z,1.20
2023-04-15T12:24:39.524Z,1.40
2023-04-15T12:27:42.681Z,1.80
2023-04-15T12:30:54.568Z,2.70
2023-04-15T12:33:58.765Z,1.50
2023-04-15T12:37:04.351Z,1.70
2023-04-15T12:40:08.889Z,1.50
2023-04-15T12:43:12.035Z,1.70
2023-04-15T12:46:15.860Z,2.30
2023-04-15T12:49:21.032Z,2.10
2023-04-15T12:52:24.647Z,1.60
2023-04-15T12:55:27.944Z,1.70
2023-04-15T12:58:30.811Z,1.70
2023-04-15T13:01:33.753Z,3.80
2023-04-15T13:04:36.935Z,1.90
2023-04-15T13:07:40.127Z,1.60
2023-04-15T13:10:43.767Z,2.60
2023-04-15T13:13:46.747Z,2.40
2023-04-15T13:16:49.852Z,1.80
2023-04-15T13:19:52.793Z,1.80
2023-04-15T13:22:55.771Z,1.50
2023-04-15T13:25:58.842Z,1.80
2023-04-15T13:29:02.082Z,1.60
2023-04-15T13:32:05.306Z,3.60
2023-04-15T13:35:08.759Z,2.60
2023-04-15T13:38:11.690Z,3.60
2023-04-15T13:41:14.582Z,3.50
2023-04-15T13:44:18.477Z,2.60
2023-04-15T13:47:22.748Z,1.90
2023-04-15T13:50:46.849Z,1.40
2023-04-15T13:54:37.772Z,2.00
2023-04-15T13:58:21.432Z,3.00
2023-04-15T14:02:02.451Z,1.30
2023-04-15T14:05:46.498Z,2.40
2023-04-15T14:09:43.516Z,2.70
2023-04-15T14:12:58.165Z,2.30
2023-04-15T14:16:49.006Z,1.50
2023-04-15T14:20:55.162Z,2.30
2023-04-15T14:24:57.862Z,2.30
2023-04-15T14:28:48.395Z,2.30
2023-04-15T14:33:04.600Z,2.40
2023-04-15T14:36:56.939Z,2.60
2023-04-15T14:40:50.150Z,2.20
2023-04-15T14:44:45.073Z,3.00
2023-04-15T14:48:38.780Z,6.10
2023-04-15T14:51:56.232Z,3.60
2023-04-15T14:55:46.391Z,2.60
2023-04-15T14:59:44.925Z,1.80
2023-04-15T15:03:19.648Z,2.40
2023-04-15T15:06:47.357Z,2.60
2023-04-15T15:10:16.125Z,3.10
2023-04-15T15:13:47.266Z,3.00
2023-04-15T15:17:21.457Z,2.80
2023-04-15T15:21:09.653Z,3.60
2023-04-15T15:24:36.347Z,2.60
2023-04-15T15:28:01.316Z,2.30
2023-04-15T15:31:50.601Z,2.80
2023-04-15T15:35:24.302Z,4.00
2023-04-15T15:38:52.192Z,4.10
2023-04-15T15:42:20.288Z,5.00
2023-04-15T15:45:55.111Z,5.20
2023-04-15T15:49:38.038Z,5.60
2023-04-15T15:53:05.045Z,4.50
2023-04-15T15:56:11.220Z,4.00
2023-04-15T15:59:14.497Z,3.70
2023-04-15T16:02:56.322Z,4.10
2023-04-15T16:06:29.988Z,3.10
2023-04-15T16:09:33.909Z,3.40
2023-04-15T16:12:45.161Z,12.40
2023-04-15T16:15:57.054Z,7.20
2023-04-15T16:19:22.152Z,4.80
2023-04-15T16:22:42.582Z,5.10
2023-04-15T16:26:38.907Z,5.80
2023-04-15T16:30:33.384Z,5.50
2023-04-15T16:34:18.661Z,5.60
2023-04-15T16:38:24.204Z,4.50
2023-04-15T16:42:51.439Z,5.10
2023-04-15T16:47:04.610Z,5.10
2023-04-15T16:51:49.622Z,5.00
2023-04-15T16:56:13.868Z,6.70
2023-04-15T17:00:49.445Z,4.70
2023-04-15T17:05:35.820Z,4.80
2023-04-15T17:10:20.672Z,5.20
2023-04-15T17:14:41.374Z,3.90
2023-04-15T17:18:47.110Z,3.10
2023-04-15T17:23:31.432Z,5.00
2023-04-15T17:27:39.265Z,6.20
2023-04-15T17:32:23.802Z,5.50
2023-04-15T17:37:05.025Z,5.00
2023-04-15T17:41:09.385Z,6.30
2023-04-15T17:45:37.288Z,8.10
2023-04-15T17:50:23.978Z,15.20
2023-04-15T17:54:44.612Z,16.40
2023-04-15T17:58:48.612Z,9.30
2023-04-15T18:03:22.907Z,13.40
2023-04-15T18:07:48.906Z,12.70
2023-04-15T18:11:57.055Z,10.20
2023-04-15T18:16:23.602Z,10.40
2023-04-15T18:20:42.893Z,8.50
2023-04-15T18:25:09.801Z,8.40
2023-04-15T18:34:19.976Z,9.80
2023-04-15T18:38:42.944Z,14.60
2023-04-15T18:42:40.550Z,11.10
2023-04-15T18:46:45.010Z,9.70
2023-04-15T18:51:11.225Z,10.80
2023-04-15T18:55:18.991Z,11.20
2023-04-15T18:59:36.895Z,11.80
2023-04-15T19:09:54.588Z,7.90
2023-04-15T19:13:53.378Z,8.50
2023-04-15T19:17:50.525Z,9.90
2023-04-15T19:22:17.839Z,7.90
2023-04-15T19:26:26.951Z,8.70
2023-04-15T19:31:14.098Z,9.80
2023-04-15T19:39:14.176Z,9.10
2023-04-15T19:43:47.532Z,11.10
2023-04-15T19:48:08.488Z,10.60
2023-04-15T19:52:32.630Z,5.70
2023-04-15T19:57:06.269Z,4.90
2023-04-15T20:01:39.520Z,5.90
2023-04-15T20:06:25.256Z,6.50
2023-04-15T20:10:48.686Z,6.40
2023-04-15T20:15:34.940Z,5.40
2023-04-15T20:20:19.777Z,5.60
2023-04-15T20:24:19.061Z,9.10
2023-04-15T20:28:33.551Z,14.30
2023-04-15T20:33:01.972Z,12.50
2023-04-15T20:37:20.077Z,9.40
2023-04-15T20:41:50.271Z,8.50
2023-04-15T20:46:20.921Z,6.40
2023-04-15T20:50:16.670Z,6.70
2023-04-15T20:54:24.279Z,6.10
2023-04-15T20:58:53.067Z,5.10
2023-04-15T21:03:11.433Z,6.10
2023-04-15T21:07:20.850Z,4.90
2023-04-15T21:12:07.087Z,6.30
2023-04-15T21:16:51.543Z,6.10
2023-04-15T21:21:39.641Z,6.30
2023-04-15T21:25:46.899Z,7.50
2023-04-15T21:30:15.403Z,5.30
2023-04-15T21:34:55.924Z,5.40
2023-04-15T21:39:23.449Z,7.30
2023-04-15T21:43:49.186Z,7.20
2023-04-15T21:48:06.038Z,6.60
2023-04-15T21:52:13.606Z,5.80
2023-04-15T21:56:38.107Z,5.20
2023-04-15T22:01:13.347Z,6.10
2023-04-15T22:05:30.179Z,5.60
2023-04-15T22:10:03.953Z,4.90
2023-04-15T22:14:22.271Z,4.70
2023-04-15T22:18:34.290Z,3.30
2023-04-15T22:22:54.482Z,3.00
2023-04-15T22:27:08.474Z,6.00
2023-04-15T22:31:22.321Z,5.50
2023-04-15T22:35:42.833Z,5.30
2023-04-15T22:40:26.998Z,3.80
2023-04-15T22:44:37.436Z,5.10
2023-04-15T22:48:57.943Z,4.20
2023-04-15T22:53:09.986Z,3.50
2023-04-15T22:57:41.925Z,3.70
2023-04-15T23:01:48.607Z,4.50
2023-04-15T23:05:53.254Z,4.40
2023-04-15T23:10:18.251Z,4.10
2023-04-15T23:14:30.950Z,4.30
2023-04-15T23:18:37.714Z,4.90
2023-04-15T23:23:01.140Z,4.80
2023-04-15T23:27:13.217Z,4.20
2023-04-15T23:31:44.194Z,4.00
2023-04-15T23:35:56.101Z,3.20
2023-04-15T23:40:08.335Z,4.10
2023-04-15T23:44:41.008Z,6.50
2023-04-15T23:48:51.093Z,7.40
2023-04-15T23:53:03.373Z,7.00
2023-04-15T23:57:28.464Z,6.80
